Time;durP1;ratioP1;P1;durP2;ratioP2;P2;SDS_P1;SDS_P2;PMS_P1;PMS_P2;Temp;Humidity;BMP_temperature;BMP_pressure;BME280_temperature;BME280_humidity;BME280_pressure;Samples;Min_cycle;Max_cycle;Signal;HPM_P1;HPM_P2
2021/09/08 00:00:11;;;;;;;;;;;;;;;22.31;48.61;96080.56;1048027;28;1584;-58
2021/09/08 00:00:42;;;;;;;;;;;;;;;22.30;48.74;96081.63;1046007;28;2161;-56
2021/09/08 00:01:12;;;;;;;;;;;;;;;22.30;48.56;96078.97;1048994;28;1202;-57
2021/09/08 00:01:43;;;;;;;;;;;;;;;22.31;48.46;96079.78;1049023;28;1043;-56
2021/09/08 00:02:13;;;;;;;;;;;;;;;22.31;48.53;96072.63;1048982;28;1165;-57
2021/09/08 00:02:43;;;;;;;;;;;;;;;22.30;48.53;96076.34;1047618;28;1051;-57
2021/09/08 00:03:13;;;;;;;;;;;;;;;22.31;48.53;96075.28;1048977;28;1303;-57
2021/09/08 00:03:44;;;;;;;;;;;;;;;22.31;48.51;96077.13;1048927;28;1262;-54
2021/09/08 00:04:14;;;;;;;;;;;;;;;22.31;48.62;96074.50;1048859;28;1902;-56
2021/09/08 00:04:44;;;;;;;;;;;;;;;22.31;48.50;96077.91;1048781;28;1087;-56
2021/09/08 00:05:15;;;;;;;;;;;;;;;22.30;48.66;96076.34;1048814;28;1083;-53
2021/09/08 00:05:45;;;;;;;;;;;;;;;22.30;48.52;96073.69;1047806;28;2064;-56
2021/09/08 00:06:15;;;;;;;;;;;;;;;22.31;48.47;96074.50;1048903;28;1043;-56
2021/09/08 00:06:46;;;;;;;;;;;;;;;22.31;48.65;96074.50;1048897;28;1119;-57
2021/09/08 00:07:16;;;;;;;;;;;;;;;22.31;48.39;96079.78;1048684;28;1107;-56
2021/09/08 00:07:46;;;;;;;;;;;;;;;22.30;48.56;96073.69;1048330;28;1729;-57
2021/09/08 00:08:17;;;;;;;;;;;;;;;22.31;48.75;96070.00;1047657;28;2072;-56
2021/09/08 00:08:47;;;;;;;;;;;;;;;22.30;48.56;96073.69;1048713;28;982;-55
2021/09/08 00:09:17;;;;;;;;;;;;;;;22.31;48.47;96074.50;1048456;28;1139;-57
2021/09/08 00:09:48;;;;;;;;;;;;;;;22.31;48.77;96074.50;1048398;28;2010;-55
2021/09/08 00:10:18;;;;;;;;;;;;;;;22.31;48.67;96070.00;1048270;28;1248;-55
2021/09/08 00:10:48;;;;;;;;;;;;;;;22.31;48.79;96075.28;1047837;28;2023;-54
2021/09/08 00:11:18;;;;;;;;;;;;;;;22.30;48.69;96073.69;1048690;28;1197;-57
2021/09/08 00:11:49;;;;;;;;;;;;;;;22.31;48.74;96072.63;1048708;28;1077;-56
2021/09/08 00:12:19;;;;;;;;;;;;;;;22.31;48.51;96072.63;1048434;28;1178;-55
2021/09/08 00:12:49;;;;;;;;;;;;;;;22.31;48.42;96075.28;1048315;28;1017;-57
2021/09/08 00:13:20;;;;;;;;;;;;;;;22.30;48.53;96071.06;1047815;28;1418;-57
2021/09/08 00:13:50;;;;;;;;;;;;;;;22.31;48.58;96067.34;1048871;28;1048;-51
2021/09/08 00:14:20;;;;;;;;;;;;;;;22.31;48.76;96072.63;1048683;28;1107;-57
2021/09/08 00:14:51;;;;;;;;;;;;;;;22.31;48.87;96070.00;1048997;28;1051;-56
2021/09/08 00:15:21;;;;;;;;;;;;;;;22.31;48.65;96062.06;1048834;28;1122;-55
2021/09/08 00:15:52;;;;;;;;;;;;;;;22.31;48.56;96067.34;1046935;28;2060;-56
2021/09/08 00:16:22;;;;;;;;;;;;;;;22.32;48.61;96066.28;1048527;28;1348;-57
2021/09/08 00:16:52;;;;;;;;;;;;;;;22.31;48.65;96064.72;1048776;28;1048;-57
2021/09/08 00:17:23;;;;;;;;;;;;;;;22.31;48.56;96070.00;1048363;28;1206;-57
2021/09/08 00:17:53;;;;;;;;;;;;;;;22.31;48.76;96064.72;1047516;28;1041;-55
2021/09/08 00:18:23;;;;;;;;;;;;;;;22.31;48.56;96064.72;1049097;28;1009;-56
2021/09/08 00:18:54;;;;;;;;;;;;;;;22.31;48.68;96059.44;1046765;28;1746;-57
2021/09/08 00:19:24;;;;;;;;;;;;;;;22.32;48.55;96065.47;1048778;28;964;-56
2021/09/08 00:19:54;;;;;;;;;;;;;;;22.31;48.67;96064.72;1048855;28;1114;-56
2021/09/08 00:20:24;;;;;;;;;;;;;;;22.29;48.77;96056.28;1048814;28;1103;-56
2021/09/08 00:20:55;;;;;;;;;;;;;;;22.31;48.50;96063.94;1047802;28;2030;-55
2021/09/08 00:21:25;;;;;;;;;;;;;;;22.31;48.65;96062.06;1047707;28;2033;-56
2021/09/08 00:21:55;;;;;;;;;;;;;;;22.30;48.53;96055.19;1048819;28;1114;-56
2021/09/08 00:22:26;;;;;;;;;;;;;;;22.31;48.56;96061.28;1049097;28;1206;-57
2021/09/08 00:22:56;;;;;;;;;;;;;;;22.31;48.69;96054.16;1048069;28;1331;-53
2021/09/08 00:23:27;;;;;;;;;;;;;;;22.31;48.75;96062.06;1048715;28;796;-54
2021/09/08 00:23:57;;;;;;;;;;;;;;;22.31;48.82;96059.44;1048119;28;1922;-56
2021/09/08 00:24:27;;;;;;;;;;;;;;;22.31;48.55;96058.66;1048451;28;1080;-55
2021/09/08 00:24:58;;;;;;;;;;;;;;;22.31;48.72;96059.44;1048880;28;1060;-55
2021/09/08 00:25:28;;;;;;;;;;;;;;;22.31;48.58;96053.38;1048860;28;1075;-54
2021/09/08 00:25:58;;;;;;;;;;;;;;;22.31;48.47;96054.16;1047486;28;2081;-55
2021/09/08 00:26:29;;;;;;;;;;;;;;;22.30;48.74;96060.47;1048947;28;946;-57
2021/09/08 00:27:03;;;;;;;;;;;;;;;22.31;48.76;96054.16;1048737;28;1096;-55
2021/09/08 00:27:34;;;;;;;;;;;;;;;22.30;48.60;96052.56;1048770;28;1217;-56
2021/09/08 00:28:04;;;;;;;;;;;;;;;22.32;48.45;96060.19;1056653;28;1319;-57
2021/09/08 00:28:34;;;;;;;;;;;;;;;22.31;48.56;96054.16;1055484;28;1757;-55
2021/09/08 00:29:09;;;;;;;;;;;;;;;22.31;48.39;96056.00;1055075;28;1558;-57
2021/09/08 00:29:39;;;;;;;;;;;;;;;22.31;48.55;96058.66;1051441;28;2103;-57
2021/09/08 00:30:09;;;;;;;;;;;;;;;22.31;48.73;96053.38;1049709;28;2097;-54
2021/09/08 00:30:40;;;;;;;;;;;;;;;22.30;48.63;96055.19;1052221;28;1084;-56
2021/09/08 00:31:10;;;;;;;;;;;;;;;22.32;48.57;96057.56;1054817;28;2096;-55
2021/09/08 00:31:40;;;;;;;;;;;;;;;22.31;48.83;96050.72;1053224;28;1025;-57
2021/09/08 00:32:11;;;;;;;;;;;;;;;22.31;48.60;96048.88;1056900;28;1083;-55
2021/09/08 00:32:41;;;;;;;;;;;;;;;22.30;48.52;96052.56;1050885;28;1360;-57
2021/09/08 00:33:11;;;;;;;;;;;;;;;22.30;48.63;96051.78;1048679;28;1289;-56
2021/09/08 00:33:42;;;;;;;;;;;;;;;22.30;48.56;96052.56;1048254;28;945;-57
2021/09/08 00:34:13;;;;;;;;;;;;;;;22.31;48.40;96054.16;1048560;28;1222;-55
2021/09/08 00:34:43;;;;;;;;;;;;;;;22.30;48.48;96052.56;1048600;28;1288;-57
2021/09/08 00:35:13;;;;;;;;;;;;;;;22.31;48.88;96058.66;1048915;28;964;-56
2021/09/08 00:35:44;;;;;;;;;;;;;;;22.30;48.58;96047.28;1048619;28;1035;-56
2021/09/08 00:36:14;;;;;;;;;;;;;;;22.31;48.55;96050.72;1047925;28;2028;-57
2021/09/08 00:36:44;;;;;;;;;;;;;;;22.31;48.63;96053.38;1048870;28;893;-56
2021/09/08 00:37:14;;;;;;;;;;;;;;;22.30;48.70;96047.28;1048963;28;1110;-56
2021/09/08 00:37:45;;;;;;;;;;;;;;;22.31;48.44;96053.38;1048564;28;1008;-57
2021/09/08 00:38:15;;;;;;;;;;;;;;;22.31;48.54;96048.88;1047471;28;1746;-54
2021/09/08 00:38:46;;;;;;;;;;;;;;;22.30;48.62;96049.91;1048840;28;1122;-56
2021/09/08 00:39:16;;;;;;;;;;;;;;;22.30;48.81;96052.56;1048855;28;1130;-56
2021/09/08 00:39:46;;;;;;;;;;;;;;;22.30;48.55;96044.63;1048499;28;1201;-55
2021/09/08 00:40:17;;;;;;;;;;;;;;;22.31;48.52;96048.06;1048901;28;1122;-56
2021/09/08 00:40:47;;;;;;;;;;;;;;;22.31;48.48;96050.72;1048479;28;1071;-55
2021/09/08 00:41:18;;;;;;;;;;;;;;;22.31;48.63;96048.88;1047729;28;2190;-56
2021/09/08 00:41:49;;;;;;;;;;;;;;;22.30;48.34;96042.00;1046585;28;1081;-56
2021/09/08 00:42:19;;;;;;;;;;;;;;;22.31;48.58;96048.06;1048951;28;1190;-56
2021/09/08 00:42:49;;;;;;;;;;;;;;;22.30;48.72;96042.00;1048042;28;1688;-56
2021/09/08 00:43:20;;;;;;;;;;;;;;;22.31;48.79;96048.06;1048274;28;1569;-54
2021/09/08 00:43:50;;;;;;;;;;;;;;;22.31;48.59;96042.78;1048404;28;1402;-55
2021/09/08 00:44:23;;;;;;;;;;;;;;;22.31;48.56;96037.50;1048195;28;1972;-56
2021/09/08 00:44:53;;;;;;;;;;;;;;;22.31;48.52;96037.50;1048309;28;1380;-55
2021/09/08 00:45:24;;;;;;;;;;;;;;;22.31;48.74;96038.31;1048228;28;2041;-55
2021/09/08 00:45:55;;;;;;;;;;;;;;;22.30;48.49;96030.66;1048609;28;1678;-56
2021/09/08 00:46:25;;;;;;;;;;;;;;;22.32;48.66;96044.34;1047452;28;2067;-57
2021/09/08 00:46:56;;;;;;;;;;;;;;;22.31;48.56;96030.38;1048497;28;1069;-54
2021/09/08 00:47:26;;;;;;;;;;;;;;;22.31;48.66;96033.03;1047972;28;1716;-56
2021/09/08 00:47:56;;;;;;;;;;;;;;;22.31;48.75;96038.31;1047140;28;1017;-57
2021/09/08 00:48:27;;;;;;;;;;;;;;;22.32;48.75;96033.78;1048363;28;1088;-57
2021/09/08 00:48:57;;;;;;;;;;;;;;;22.30;48.60;96031.44;1048389;28;1123;-56
2021/09/08 00:49:27;;;;;;;;;;;;;;;22.31;48.72;96026.94;1048984;28;966;-57
2021/09/08 00:49:57;;;;;;;;;;;;;;;22.32;48.74;96029.31;1048610;28;1138;-56
2021/09/08 00:50:28;;;;;;;;;;;;;;;22.30;48.56;96026.16;1048628;28;1040;-56
2021/09/08 00:50:58;;;;;;;;;;;;;;;22.31;48.52;96030.38;1048412;28;1242;-57
2021/09/08 00:51:28;;;;;;;;;;;;;;;22.30;48.76;96023.50;1051814;28;2015;-57
2021/09/08 00:52:03;;;;;;;;;;;;;;;22.31;48.63;96024.31;1051745;28;1681;-57
2021/09/08 00:52:33;;;;;;;;;;;;;;;22.31;48.69;96030.38;1048627;28;740;-54
2021/09/08 00:53:03;;;;;;;;;;;;;;;22.30;48.80;96026.16;1051199;28;2046;-55
2021/09/08 00:53:34;;;;;;;;;;;;;;;22.31;48.55;96026.94;1048428;28;1501;-50
2021/09/08 00:54:05;;;;;;;;;;;;;;;22.31;48.56;96022.47;1044361;28;1100;-54
2021/09/08 00:54:35;;;;;;;;;;;;;;;22.31;48.76;96030.38;1043643;28;2066;-55
2021/09/08 00:55:07;;;;;;;;;;;;;;;22.30;48.60;96023.50;1043730;28;1491;-55
2021/09/08 00:55:37;;;;;;;;;;;;;;;22.31;48.79;96024.31;1044159;28;2771;-57
2021/09/08 00:56:07;;;;;;;;;;;;;;;22.29;48.57;96021.94;1044389;28;1105;-52
2021/09/08 00:56:38;;;;;;;;;;;;;;;22.30;48.81;96026.16;1043447;28;2065;-53
2021/09/08 00:57:08;;;;;;;;;;;;;;;22.31;48.75;96021.66;1048424;28;1156;-52
2021/09/08 00:57:39;;;;;;;;;;;;;;;22.30;48.53;96020.88;1044373;28;800;-53
2021/09/08 00:58:10;;;;;;;;;;;;;;;22.31;48.80;96019.03;1044243;28;1407;-51
2021/09/08 00:58:40;;;;;;;;;;;;;;;22.30;48.66;96022.72;1043907;28;1073;-54
2021/09/08 00:59:10;;;;;;;;;;;;;;;22.30;48.56;96018.22;1035936;28;1648;-56
2021/09/08 00:59:41;;;;;;;;;;;;;;;22.30;48.69;96020.88;1038965;28;1080;-54
2021/09/08 01:00:12;;;;;;;;;;;;;;;22.30;48.59;96014.78;1044365;28;1068;-52
2021/09/08 01:00:43;;;;;;;;;;;;;;;22.30;48.65;96015.59;1048318;28;1192;-54
2021/09/08 01:01:13;;;;;;;;;;;;;;;22.31;48.73;96017.19;1048796;28;1138;-51
2021/09/08 01:01:43;;;;;;;;;;;;;;;22.30;48.66;96018.22;1047958;28;2181;-57
2021/09/08 01:02:14;;;;;;;;;;;;;;;22.30;48.46;96015.59;1048911;28;1154;-56
2021/09/08 01:02:44;;;;;;;;;;;;;;;22.30;48.71;96014.78;1047529;28;1029;-56
2021/09/08 01:03:14;;;;;;;;;;;;;;;22.30;48.48;96015.59;1048789;28;1312;-55
2021/09/08 01:03:44;;;;;;;;;;;;;;;22.30;48.70;96018.22;1048819;28;1075;-54
2021/09/08 01:04:15;;;;;;;;;;;;;;;22.30;48.76;96012.16;1048591;28;1973;-56
2021/09/08 01:04:45;;;;;;;;;;;;;;;22.30;48.58;96014.78;1048327;28;1087;-57
2021/09/08 01:05:15;;;;;;;;;;;;;;;22.31;48.55;96016.38;1048707;28;1138;-55
2021/09/08 01:05:46;;;;;;;;;;;;;;;22.30;48.62;96018.22;1048843;28;1047;-55
2021/09/08 01:06:17;;;;;;;;;;;;;;;22.30;48.82;96012.94;1048320;28;1140;-52
2021/09/08 01:06:47;;;;;;;;;;;;;;;22.30;48.51;96018.22;1047482;28;2006;-55
2021/09/08 01:07:17;;;;;;;;;;;;;;;22.30;48.61;96020.88;1048406;28;1178;-56
2021/09/08 01:08:03;;;;;;;;;;;;;;;22.30;48.52;96012.94;1047563;28;998;-57
2021/09/08 01:08:34;;;;;;;;;;;;;;;22.30;48.42;96012.94;1048372;28;1084;-54
2021/09/08 01:09:24;;;;;;;;;;;;;;;22.30;48.58;96020.88;1046048;28;1239;-56
2021/09/08 01:10:14;;;;;;;;;;;;;;;22.30;48.48;96010.31;1047416;28;1445;-51
2021/09/08 01:11:05;;;;;;;;;;;;;;;22.30;48.55;96014.78;1048232;28;1085;-55
2021/09/08 01:11:36;;;;;;;;;;;;;;;22.30;48.65;96023.50;1047560;28;2166;-56
2021/09/08 01:12:06;;;;;;;;;;;;;;;22.29;48.68;96016.66;1048413;28;1085;-57
2021/09/08 01:12:36;;;;;;;;;;;;;;;22.30;48.89;96012.94;1052295;28;1338;-53
2021/09/08 01:13:07;;;;;;;;;;;;;;;22.31;48.59;96021.66;1052308;28;1378;-54
2021/09/08 01:13:38;;;;;;;;;;;;;;;22.29;48.56;96016.66;1052678;28;1277;-54
2021/09/08 01:14:28;;;;;;;;;;;;;;;22.30;48.61;96020.88;1047126;28;1240;-53
2021/09/08 01:15:00;;;;;;;;;;;;;;;22.30;48.65;96020.88;1044176;28;1264;-55
2021/09/08 01:15:35;;;;;;;;;;;;;;;22.30;48.68;96020.88;1044189;28;1193;-56
2021/09/08 01:16:25;;;;;;;;;;;;;;;22.29;48.43;96011.38;1043266;28;2105;-56
2021/09/08 01:17:18;;;;;;;;;;;;;;;22.30;48.56;96020.88;1047268;28;977;-55
2021/09/08 01:18:09;;;;;;;;;;;;;;;22.30;48.70;96014.78;1048403;28;1215;-54
2021/09/08 01:18:45;;;;;;;;;;;;;;;22.30;48.60;96018.22;1048703;28;1020;-55
2021/09/08 01:19:16;;;;;;;;;;;;;;;22.31;48.55;96016.38;1048588;28;1119;-56
2021/09/08 01:19:47;;;;;;;;;;;;;;;22.30;48.70;96020.88;1056103;28;2369;-55
2021/09/08 01:20:37;;;;;;;;;;;;;;;22.30;48.45;96017.44;1053855;28;1255;-54
2021/09/08 01:21:27;;;;;;;;;;;;;;;22.30;48.47;96012.94;1050762;28;2044;-53
2021/09/08 01:22:03;;;;;;;;;;;;;;;22.29;48.62;96008.75;1047867;28;1021;-51
2021/09/08 01:22:44;;;;;;;;;;;;;;;22.29;48.75;96011.38;1048469;28;1079;-53
2021/09/08 01:23:15;;;;;;;;;;;;;;;22.30;48.76;96014.78;1047158;28;1233;-55
2021/09/08 01:23:45;;;;;;;;;;;;;;;22.29;48.86;96008.75;1048162;28;1072;-56
2021/09/08 01:24:16;;;;;;;;;;;;;;;22.30;48.75;96015.59;1048216;28;1905;-55
2021/09/08 01:24:47;;;;;;;;;;;;;;;22.29;48.78;96008.75;1048275;28;1044;-56
2021/09/08 01:25:37;;;;;;;;;;;;;;;22.30;48.74;96015.59;1047020;28;1246;-53
2021/09/08 01:26:22;;;;;;;;;;;;;;;22.29;48.67;96013.25;1049430;28;1012;-53
2021/09/08 01:26:56;;;;;;;;;;;;;;;22.29;48.43;96019.31;1048941;28;1375;-54
2021/09/08 01:27:47;;;;;;;;;;;;;;;22.29;48.66;96011.38;1048349;28;1183;-53
2021/09/08 01:28:27;;;;;;;;;;;;;;;22.30;48.55;96017.44;1044129;28;1267;-55
2021/09/08 01:28:57;;;;;;;;;;;;;;;22.29;48.66;96014.03;1049233;28;1096;-53
2021/09/08 01:29:28;;;;;;;;;;;;;;;22.29;48.49;96011.38;1047194;28;1702;-52
2021/09/08 01:29:58;;;;;;;;;;;;;;;22.29;48.69;96014.03;1047474;28;1112;-55
2021/09/08 01:30:29;;;;;;;;;;;;;;;22.30;48.59;96006.88;1049754;28;1090;-55
2021/09/08 01:31:05;;;;;;;;;;;;;;;22.30;48.55;96014.78;1057524;28;1246;-55
2021/09/08 01:31:42;;;;;;;;;;;;;;;22.29;48.82;96011.38;1052417;28;2135;-53
2021/09/08 01:32:29;;;;;;;;;;;;;;;22.30;48.91;96012.16;1048993;28;1051;-55
2021/09/08 01:33:01;;;;;;;;;;;;;;;22.29;48.85;96008.75;1036627;28;1371;-57
2021/09/08 01:33:31;;;;;;;;;;;;;;;22.29;48.85;96018.53;1039706;28;1221;-56
2021/09/08 01:34:02;;;;;;;;;;;;;;;22.29;48.55;96008.75;1041869;28;1061;-56
2021/09/08 01:34:32;;;;;;;;;;;;;;;22.29;48.83;96007.94;1049437;28;1080;-53
2021/09/08 01:35:03;;;;;;;;;;;;;;;22.29;48.56;96010.59;1056446;28;1029;-52
2021/09/08 01:35:33;;;;;;;;;;;;;;;22.29;48.60;96006.09;1057774;28;1075;-51
2021/09/08 01:36:04;;;;;;;;;;;;;;;22.29;48.62;96014.03;1057262;28;1376;-56
2021/09/08 01:36:38;;;;;;;;;;;;;;;22.29;48.75;96008.75;1048713;28;2185;-54
2021/09/08 01:37:11;;;;;;;;;;;;;;;22.29;48.41;96011.38;1049079;28;1069;-55
2021/09/08 01:37:41;;;;;;;;;;;;;;;22.30;48.74;96004.22;1045121;28;1077;-53
2021/09/08 01:38:12;;;;;;;;;;;;;;;22.30;48.60;96012.16;1049025;28;1143;-55
2021/09/08 01:38:42;;;;;;;;;;;;;;;22.30;48.75;96004.22;1048460;28;1830;-57
2021/09/08 01:39:16;;;;;;;;;;;;;;;22.29;48.55;96006.09;1049535;28;1146;-56
2021/09/08 01:39:46;;;;;;;;;;;;;;;22.29;48.82;96008.75;1049597;28;1068;-55
2021/09/08 01:40:18;;;;;;;;;;;;;;;22.29;48.66;96006.09;1049233;28;1134;-54
2021/09/08 01:40:48;;;;;;;;;;;;;;;22.29;48.74;96006.09;1049539;28;1099;-55
2021/09/08 01:41:18;;;;;;;;;;;;;;;22.29;48.60;96006.09;1049229;28;1218;-54
2021/09/08 01:41:49;;;;;;;;;;;;;;;22.29;48.62;96002.66;1048177;28;2076;-55
2021/09/08 01:42:19;;;;;;;;;;;;;;;22.29;48.43;96000.03;1049315;28;1214;-55
2021/09/08 01:42:49;;;;;;;;;;;;;;;22.28;48.55;95998.44;1048365;28;1773;-56
2021/09/08 01:43:23;;;;;;;;;;;;;;;22.28;48.56;96001.88;1049273;28;1261;-56
2021/09/08 01:43:54;;;;;;;;;;;;;;;22.28;48.57;96001.88;1049124;28;1041;-56
2021/09/08 01:44:24;;;;;;;;;;;;;;;22.29;48.73;96003.47;1044706;28;1906;-55
2021/09/08 01:44:54;;;;;;;;;;;;;;;22.29;48.79;96005.31;1040622;28;1426;-55
2021/09/08 01:45:25;;;;;;;;;;;;;;;22.29;48.56;96000.03;1040232;28;2057;-54
2021/09/08 01:45:55;;;;;;;;;;;;;;;22.29;48.67;96003.47;1043055;28;1010;-56
2021/09/08 01:46:25;;;;;;;;;;;;;;;22.29;48.47;96003.47;1048881;28;1691;-55
2021/09/08 01:46:58;;;;;;;;;;;;;;;22.29;48.75;96005.31;1047864;28;2143;-56
2021/09/08 01:47:29;;;;;;;;;;;;;;;22.29;48.64;96000.81;1045615;28;926;-53
2021/09/08 01:47:59;;;;;;;;;;;;;;;22.30;48.48;96005.03;1046771;28;1088;-54
2021/09/08 01:48:29;;;;;;;;;;;;;;;22.28;48.85;96001.88;1049364;28;1205;-54
2021/09/08 01:49:00;;;;;;;;;;;;;;;22.29;48.35;96000.81;1049386;28;1103;-54
2021/09/08 01:49:30;;;;;;;;;;;;;;;22.29;48.90;96002.66;1049614;28;799;-56
2021/09/08 01:50:00;;;;;;;;;;;;;;;22.28;48.58;95996.59;1049289;28;1087;-57
2021/09/08 01:50:30;;;;;;;;;;;;;;;22.28;48.76;96001.88;1049003;28;1490;-56
2021/09/08 01:51:01;;;;;;;;;;;;;;;22.29;48.64;96000.03;1049045;28;1048;-54
2021/09/08 01:51:31;;;;;;;;;;;;;;;22.28;48.49;95999.25;1048596;28;2054;-56
2021/09/08 01:52:02;;;;;;;;;;;;;;;22.28;48.55;95998.44;1048727;28;1501;-56
2021/09/08 01:52:32;;;;;;;;;;;;;;;22.29;48.77;96000.81;1049241;28;820;-53
2021/09/08 01:53:03;;;;;;;;;;;;;;;22.28;48.72;95995.81;1049130;28;1448;-54
2021/09/08 01:53:33;;;;;;;;;;;;;;;22.28;48.54;95999.25;1049511;28;1166;-58
2021/09/08 01:54:03;;;;;;;;;;;;;;;22.27;48.60;95995.03;1049515;28;1142;-53
2021/09/08 01:54:33;;;;;;;;;;;;;;;22.28;48.69;95995.81;1047347;28;1877;-54
2021/09/08 01:55:04;;;;;;;;;;;;;;;22.28;48.79;95993.97;1047974;28;1029;-53
2021/09/08 01:55:35;;;;;;;;;;;;;;;22.29;48.79;96000.03;1045177;28;1318;-55
2021/09/08 01:56:05;;;;;;;;;;;;;;;22.28;48.76;95996.59;1044938;28;1084;-52
2021/09/08 01:56:35;;;;;;;;;;;;;;;22.28;48.47;95993.97;1044311;28;2060;-56
2021/09/08 01:57:05;;;;;;;;;;;;;;;22.28;48.61;95991.31;1044523;28;1132;-55
2021/09/08 01:57:36;;;;;;;;;;;;;;;22.29;48.73;95989.47;1049002;28;859;-57
2021/09/08 01:58:06;;;;;;;;;;;;;;;22.28;48.57;95990.53;1049010;28;1100;-56
2021/09/08 01:58:36;;;;;;;;;;;;;;;22.28;48.64;95993.97;1049412;28;1217;-57
2021/09/08 01:59:07;;;;;;;;;;;;;;;22.28;48.57;95996.59;1049235;28;1084;-52
2021/09/08 01:59:37;;;;;;;;;;;;;;;22.28;48.47;95991.31;1048550;28;1957;-56
2021/09/08 02:00:08;;;;;;;;;;;;;;;22.29;48.54;95992.09;1049300;28;1040;-55
2021/09/08 02:00:38;;;;;;;;;;;;;;;22.28;48.45;95990.53;1048032;28;1752;-56
2021/09/08 02:01:08;;;;;;;;;;;;;;;22.28;48.92;95991.31;1048771;28;1131;-54
2021/09/08 02:01:39;;;;;;;;;;;;;;;22.27;48.53;95995.03;1048339;28;2042;-54
2021/09/08 02:02:09;;;;;;;;;;;;;;;22.27;48.79;95995.03;1048955;28;1015;-52
2021/09/08 02:02:39;;;;;;;;;;;;;;;22.28;48.71;95995.81;1048267;28;1056;-54
2021/09/08 02:03:09;;;;;;;;;;;;;;;22.28;48.48;95996.59;1048715;28;1205;-54
2021/09/08 02:03:40;;;;;;;;;;;;;;;22.29;48.81;95997.38;1044731;28;1498;-55
2021/09/08 02:04:10;;;;;;;;;;;;;;;22.28;48.68;95991.31;1044967;28;1918;-55
2021/09/08 02:04:41;;;;;;;;;;;;;;;22.27;48.57;95989.75;1044877;28;1002;-56
2021/09/08 02:05:13;;;;;;;;;;;;;;;22.28;48.58;95991.31;1048414;28;1784;-52
2021/09/08 02:05:44;;;;;;;;;;;;;;;22.28;48.69;95990.53;1049164;28;1148;-56
2021/09/08 02:06:23;;;;;;;;;;;;;;;22.28;48.55;95996.59;1049094;28;1228;-57
2021/09/08 02:06:53;;;;;;;;;;;;;;;22.28;48.55;95986.03;1048345;28;2033;-55
2021/09/08 02:07:23;;;;;;;;;;;;;;;22.28;48.83;95986.03;1049267;28;1008;-52
2021/09/08 02:07:54;;;;;;;;;;;;;;;22.28;48.70;95995.81;1049262;28;997;-53
2021/09/08 02:08:24;;;;;;;;;;;;;;;22.28;48.60;95993.97;1049399;28;1087;-57
2021/09/08 02:08:55;;;;;;;;;;;;;;;22.28;48.70;95993.97;1049438;28;1111;-52
2021/09/08 02:09:25;;;;;;;;;;;;;;;22.28;48.56;95991.31;1048859;28;1150;-52
2021/09/08 02:09:56;;;;;;;;;;;;;;;22.28;48.70;95991.31;1047993;28;2116;-54
2021/09/08 02:10:26;;;;;;;;;;;;;;;22.28;48.64;95993.16;1048397;28;2052;-54
2021/09/08 02:10:57;;;;;;;;;;;;;;;22.27;48.58;95984.47;1049007;28;1099;-54
2021/09/08 02:11:27;;;;;;;;;;;;;;;22.27;48.56;95995.03;1049310;28;1452;-55
2021/09/08 02:11:58;;;;;;;;;;;;;;;22.27;48.72;95988.97;1048475;28;2061;-55
2021/09/08 02:12:28;;;;;;;;;;;;;;;22.27;48.78;95987.13;1049519;28;1095;-56
2021/09/08 02:12:59;;;;;;;;;;;;;;;22.28;48.71;95996.59;1048915;28;1277;-56
2021/09/08 02:13:29;;;;;;;;;;;;;;;22.27;48.61;95989.75;1049279;28;1173;-57
2021/09/08 02:13:59;;;;;;;;;;;;;;;22.27;48.61;95988.97;1049262;28;1052;-57
2021/09/08 02:14:30;;;;;;;;;;;;;;;22.28;48.71;95986.03;1049393;28;1098;-54
2021/09/08 02:15:01;;;;;;;;;;;;;;;22.27;48.47;95989.75;1049416;28;1027;-55
2021/09/08 02:15:31;;;;;;;;;;;;;;;22.27;48.82;95988.97;1049512;28;824;-56
2021/09/08 02:16:02;;;;;;;;;;;;;;;22.27;48.56;95987.13;1044824;28;1342;-55
2021/09/08 02:16:32;;;;;;;;;;;;;;;22.27;48.80;95984.47;1044952;28;1053;-51
2021/09/08 02:17:02;;;;;;;;;;;;;;;22.28;48.55;95991.31;1044074;28;2092;-55
2021/09/08 02:17:33;;;;;;;;;;;;;;;22.26;48.59;95985.53;1044246;28;1096;-55
2021/09/08 02:18:03;;;;;;;;;;;;;;;22.26;48.69;95985.53;1048907;28;1119;-54
2021/09/08 02:18:33;;;;;;;;;;;;;;;22.26;48.76;95982.88;1049538;28;1150;-53
2021/09/08 02:19:04;;;;;;;;;;;;;;;22.28;48.74;95991.31;1048211;28;1995;-57
2021/09/08 02:19:34;;;;;;;;;;;;;;;22.27;48.65;95981.03;1049566;28;1135;-56
2021/09/08 02:20:05;;;;;;;;;;;;;;;22.27;48.55;95981.84;1049118;28;1080;-57
2021/09/08 02:20:35;;;;;;;;;;;;;;;22.26;48.79;95988.16;1049561;28;1106;-56
2021/09/08 02:21:05;;;;;;;;;;;;;;;22.26;48.70;95988.16;1049200;28;968;-52
2021/09/08 02:21:36;;;;;;;;;;;;;;;22.27;48.63;95983.69;1049521;28;1177;-55
2021/09/08 02:22:06;;;;;;;;;;;;;;;22.27;48.65;95987.13;1047872;28;2056;-56
2021/09/08 02:22:36;;;;;;;;;;;;;;;22.27;48.55;95975.75;1048965;28;1055;-54
2021/09/08 02:23:06;;;;;;;;;;;;;;;22.26;48.83;95980.25;1048541;28;1331;-55
2021/09/08 02:23:37;;;;;;;;;;;;;;;22.27;48.49;95983.69;1049138;28;1701;-54
2021/09/08 02:24:07;;;;;;;;;;;;;;;22.27;48.83;95981.03;1048656;28;1975;-56
2021/09/08 02:24:37;;;;;;;;;;;;;;;22.28;48.68;95977.31;1049280;28;1099;-55
2021/09/08 02:25:08;;;;;;;;;;;;;;;22.26;48.62;95977.59;1049388;28;1084;-56
2021/09/08 02:25:38;;;;;;;;;;;;;;;22.27;48.69;95979.19;1049498;28;972;-54
2021/09/08 02:26:08;;;;;;;;;;;;;;;22.27;48.76;95981.84;1049105;28;1075;-55
2021/09/08 02:26:39;;;;;;;;;;;;;;;22.27;48.48;95983.69;1047330;28;2151;-57
2021/09/08 02:27:09;;;;;;;;;;;;;;;22.26;48.90;95982.88;1048657;28;2539;-55
2021/09/08 02:27:40;;;;;;;;;;;;;;;22.26;48.50;95977.59;1046959;28;1692;-53
2021/09/08 02:28:10;;;;;;;;;;;;;;;22.27;48.61;95983.69;1047452;28;1095;-51
2021/09/08 02:28:41;;;;;;;;;;;;;;;22.26;48.55;95977.59;1049171;28;1185;-56
2021/09/08 02:29:11;;;;;;;;;;;;;;;22.27;48.74;95979.19;1048763;28;1604;-57
2021/09/08 02:29:41;;;;;;;;;;;;;;;22.27;48.82;95979.19;1048731;28;1072;-55
2021/09/08 02:30:12;;;;;;;;;;;;;;;22.27;48.55;95979.19;1048675;28;1379;-54
2021/09/08 02:30:42;;;;;;;;;;;;;;;22.26;48.75;95977.59;1049052;28;1076;-53
2021/09/08 02:31:12;;;;;;;;;;;;;;;22.27;48.63;95979.19;1048957;28;1048;-57
2021/09/08 02:31:43;;;;;;;;;;;;;;;22.27;48.64;95981.84;1048459;28;2079;-54
2021/09/08 02:32:13;;;;;;;;;;;;;;;22.26;48.80;95977.59;1048925;28;1496;-57
2021/09/08 02:32:43;;;;;;;;;;;;;;;22.27;48.70;95981.84;1048114;28;1083;-55
2021/09/08 02:33:15;;;;;;;;;;;;;;;22.27;48.94;95981.84;1049358;28;1349;-56
2021/09/08 02:33:45;;;;;;;;;;;;;;;22.27;48.63;95975.75;1049213;28;1083;-57
2021/09/08 02:34:16;;;;;;;;;;;;;;;22.27;48.86;95981.03;1048662;28;1730;-53
2021/09/08 02:34:46;;;;;;;;;;;;;;;22.26;48.48;95980.25;1048812;28;1060;-55
2021/09/08 02:35:16;;;;;;;;;;;;;;;22.26;48.80;95977.59;1049056;28;1107;-55
2021/09/08 02:35:46;;;;;;;;;;;;;;;22.26;48.55;95974.16;1048808;28;1135;-55
2021/09/08 02:36:20;;;;;;;;;;;;;;;22.27;48.68;95981.03;1049193;28;1154;-52
2021/09/08 02:36:50;;;;;;;;;;;;;;;22.27;48.65;95978.41;1047908;28;2056;-55
2021/09/08 02:37:20;;;;;;;;;;;;;;;22.26;48.54;95977.59;1049373;28;1048;-54
2021/09/08 02:37:51;;;;;;;;;;;;;;;22.26;48.47;95974.97;1049197;28;1047;-53
2021/09/08 02:38:21;;;;;;;;;;;;;;;22.27;48.70;95983.69;1047397;28;1532;-55
2021/09/08 02:38:51;;;;;;;;;;;;;;;22.27;48.44;95979.19;1047025;28;1750;-53
2021/09/08 02:39:22;;;;;;;;;;;;;;;22.28;48.63;95983.38;1049358;28;1103;-54
2021/09/08 02:39:52;;;;;;;;;;;;;;;22.26;48.69;95977.59;1049331;28;1084;-56
2021/09/08 02:40:22;;;;;;;;;;;;;;;22.26;48.75;95972.31;1049381;28;1241;-54
2021/09/08 02:40:53;;;;;;;;;;;;;;;22.27;48.79;95981.03;1049064;28;986;-52
2021/09/08 02:41:24;;;;;;;;;;;;;;;22.26;48.76;95976.81;1049382;28;1213;-55
2021/09/08 02:41:54;;;;;;;;;;;;;;;22.27;48.49;95979.19;1047260;28;1980;-54
2021/09/08 02:42:24;;;;;;;;;;;;;;;22.27;48.63;95984.47;1048410;28;2166;-56
2021/09/08 02:42:54;;;;;;;;;;;;;;;22.27;48.63;95976.56;1047342;28;2235;-57
2021/09/08 02:43:25;;;;;;;;;;;;;;;22.27;48.50;95978.41;1049070;28;1104;-55
2021/09/08 02:43:55;;;;;;;;;;;;;;;22.26;48.52;95980.25;1048834;28;1322;-56
2021/09/08 02:44:26;;;;;;;;;;;;;;;22.27;48.80;95973.91;1048872;28;1906;-56
2021/09/08 02:44:56;;;;;;;;;;;;;;;22.26;48.52;95982.88;1056835;28;1883;-53
2021/09/08 02:45:26;;;;;;;;;;;;;;;22.26;48.43;95977.59;1057458;28;1060;-54
2021/09/08 02:45:59;;;;;;;;;;;;;;;22.27;48.58;95978.41;1057319;28;1111;-54
2021/09/08 02:46:29;;;;;;;;;;;;;;;22.26;48.78;95977.59;1056676;28;1196;-54